Time;durP1;ratioP1;P1;durP2;ratioP2;P2;SDS_P1;SDS_P2;PMS_P1;PMS_P2;Temp;Humidity;BMP_temperature;BMP_pressure;BME280_temperature;BME280_humidity;BME280_pressure;Samples;Min_cycle;Max_cycle;Signal;HPM_P1;HPM_P2
2022/01/30 00:01:37;;;;;;;5.53;3.20;;;6.40;99.90;;;;;;5031323;28;20041;-82
2022/01/30 00:04:03;;;;;;;13.07;3.50;;;6.20;99.90;;;;;;5026582;28;20041;-82
2022/01/30 00:06:29;;;;;;;11.47;3.53;;;6.00;99.90;;;;;;5055927;28;20412;-84
2022/01/30 00:08:54;;;;;;;8.83;2.60;;;5.90;99.90;;;;;;5042224;28;20041;-85
2022/01/30 00:11:24;;;;;;;9.40;3.03;;;5.80;99.90;;;;;;5069603;28;20106;-82
2022/01/30 00:13:50;;;;;;;12.32;3.10;;;5.70;99.90;;;;;;5023081;28;20073;-82
2022/01/30 00:16:17;;;;;;;20.38;5.00;;;5.70;99.90;;;;;;5044006;28;20055;-81
2022/01/30 00:24:07;;;;;;;14.75;4.60;;;5.60;99.90;;;;;;5058607;28;20045;-82
2022/01/30 00:26:35;;;;;;;10.98;2.97;;;5.70;99.90;;;;;;5033239;28;20052;-82
2022/01/30 00:29:02;;;;;;;10.32;3.78;;;5.70;99.90;;;;;;5030929;28;20583;-82
2022/01/30 00:31:27;;;;;;;7.30;3.30;;;5.70;99.90;;;;;;5028733;28;20117;-82
2022/01/30 00:33:54;;;;;;;12.87;4.03;;;5.70;99.90;;;;;;5018559;28;20079;-82
2022/01/30 00:36:20;;;;;;;10.18;2.80;;;5.80;99.90;;;;;;5053289;28;20056;-82
2022/01/30 00:38:46;;;;;;;7.13;3.77;;;5.80;99.90;;;;;;5066645;28;20056;-82
2022/01/30 00:41:12;;;;;;;16.13;4.07;;;5.80;99.90;;;;;;5064978;28;20415;-82
2022/01/30 00:43:38;;;;;;;9.30;3.67;;;5.90;99.90;;;;;;5056895;28;20044;-82
2022/01/30 00:46:04;;;;;;;13.80;3.57;;;6.00;99.90;;;;;;5047221;28;20342;-81
2022/01/30 00:48:30;;;;;;;9.53;4.40;;;6.00;99.90;;;;;;5034793;28;20045;-81
2022/01/30 00:50:55;;;;;;;12.53;3.00;;;6.10;99.90;;;;;;5029964;28;20483;-82
2022/01/30 00:53:21;;;;;;;8.53;3.10;;;6.00;99.90;;;;;;5047970;28;20037;-82
2022/01/30 00:55:48;;;;;;;8.55;3.40;;;6.00;99.90;;;;;;5057606;28;20056;-82
2022/01/30 00:58:14;;;;;;;17.67;3.47;;;6.00;99.90;;;;;;5035134;28;20099;-82
2022/01/30 01:00:40;;;;;;;9.63;2.67;;;5.90;99.90;;;;;;5034242;28;20084;-81
2022/01/30 01:03:06;;;;;;;9.17;2.63;;;5.80;99.90;;;;;;5033165;28;20045;-81
2022/01/30 01:05:34;;;;;;;10.40;2.17;;;5.80;99.90;;;;;;5047432;28;20296;-82
2022/01/30 01:08:08;;;;;;;11.90;2.60;;;5.70;99.90;;;;;;5023584;28;20051;-82
2022/01/30 01:10:41;;;;;;;6.80;2.08;;;6.70;99.90;;;;;;5024738;28;20081;-82
2022/01/30 01:23:53;;;;;;;7.60;2.53;;;5.30;99.90;;;;;;5055197;28;20076;-82
2022/01/30 01:26:20;;;;;;;5.25;2.25;;;6.50;99.90;;;;;;5067705;28;20140;-82
2022/01/30 01:28:47;;;;;;;8.45;3.03;;;6.50;99.90;;;;;;5030339;28;20519;-81
2022/01/30 01:31:15;;;;;;;12.95;2.63;;;5.20;99.90;;;;;;5025619;28;20044;-82
2022/01/30 01:36:10;;;;;;;7.30;3.17;;;5.20;99.90;;;;;;5052148;28;20081;-82
2022/01/30 01:38:36;;;;;;;4.83;2.30;;;5.20;99.90;;;;;;5041928;28;20088;-81
2022/01/30 01:41:02;;;;;;;5.50;3.30;;;5.20;99.90;;;;;;5050891;28;20085;-82
2022/01/30 01:43:28;;;;;;;13.73;2.87;;;5.10;99.90;;;;;;5052482;28;20079;-81
2022/01/30 01:45:56;;;;;;;19.60;3.80;;;6.10;99.90;;;;;;5050162;28;20048;-81
2022/01/30 01:48:22;;;;;;;10.25;3.13;;;5.20;99.90;;;;;;5050310;28;20053;-81
2022/01/30 01:51:05;;;;;;;17.40;4.03;;;5.20;99.90;;;;;;5048275;28;20055;-82
2022/01/30 01:53:31;;;;;;;7.47;3.10;;;5.20;99.90;;;;;;5036411;28;20121;-81
2022/01/30 01:55:58;;;;;;;14.33;4.33;;;5.40;99.90;;;;;;5019116;28;20120;-81
2022/01/30 01:58:25;;;;;;;13.70;3.33;;;5.50;99.90;;;;;;5052529;28;20060;-81
2022/01/30 02:00:50;;;;;;;15.95;3.42;;;5.50;99.90;;;;;;5051241;28;20496;-83
2022/01/30 02:03:18;;;;;;;17.13;3.57;;;5.50;99.90;;;;;;5053259;28;20048;-82
2022/01/30 02:05:51;;;;;;;7.72;4.15;;;5.40;99.90;;;;;;5041495;28;20067;-86
2022/01/30 02:08:31;;;;;;;14.55;3.60;;;4.80;99.90;;;;;;5019318;28;20049;-82
2022/01/30 02:25:12;;;;;;;12.43;4.10;;;5.20;99.90;;;;;;5062288;28;20063;-82
2022/01/30 02:27:38;;;;;;;9.00;3.33;;;5.30;99.90;;;;;;5017779;28;20111;-81
2022/01/30 02:30:14;;;;;;;10.85;3.50;;;5.30;99.90;;;;;;5070417;28;20414;-81
2022/01/30 02:32:41;;;;;;;7.35;3.28;;;5.40;99.90;;;;;;5070284;28;20053;-82
2022/01/30 02:35:07;;;;;;;15.15;4.88;;;5.40;99.90;;;;;;5050313;28;20040;-81
2022/01/30 02:37:33;;;;;;;15.35;3.50;;;5.50;99.90;;;;;;5063646;28;20048;-82
2022/01/30 02:39:58;;;;;;;7.00;3.60;;;5.50;99.90;;;;;;5016995;28;20041;-82
2022/01/30 02:42:29;;;;;;;9.10;3.90;;;5.50;99.90;;;;;;5030973;28;20037;-82
2022/01/30 02:44:59;;;;;;;8.07;3.55;;;5.50;99.90;;;;;;5050578;28;20175;-82
2022/01/30 02:48:17;;;;;;;7.15;4.10;;;5.40;99.90;;;;;;5050421;28;20072;-82
2022/01/30 02:50:19;;;;;;;14.80;4.97;;;5.30;99.90;;;;;;5028709;28;20056;-82
2022/01/30 02:52:55;;;;;;;15.27;4.10;;;5.30;99.90;;;;;;5018430;28;20051;-82
2022/01/30 02:55:20;;;;;;;31.13;5.38;;;5.20;99.90;;;;;;5036989;28;20084;-82
2022/01/30 02:57:46;;;;;;;19.43;5.33;;;5.20;99.90;;;;;;5018996;28;20131;-82
2022/01/30 03:00:12;;;;;;;13.03;3.80;;;5.30;99.90;;;;;;5025401;28;20048;-82
2022/01/30 03:02:38;;;;;;;17.77;5.47;;;5.30;99.90;;;;;;5021983;28;20048;-82
2022/01/30 03:05:04;;;;;;;20.30;4.53;;;5.80;99.90;;;;;;5027077;28;20284;-82
2022/01/30 03:07:30;;;;;;;16.98;4.20;;;5.40;99.90;;;;;;5036969;28;20048;-82
2022/01/30 03:09:55;;;;;;;18.57;4.47;;;5.40;99.90;;;;;;5036722;28;20510;-82
2022/01/30 03:12:21;;;;;;;15.07;4.90;;;5.60;99.90;;;;;;5050938;28;20125;-82
2022/01/30 03:14:47;;;;;;;9.90;3.33;;;5.40;99.90;;;;;;5019198;28;20124;-82
2022/01/30 03:17:13;;;;;;;19.43;4.27;;;5.40;99.90;;;;;;5053478;28;20045;-82
2022/01/30 03:19:38;;;;;;;10.43;4.63;;;5.40;99.90;;;;;;5022433;28;20476;-82
2022/01/30 03:22:04;;;;;;;16.67;3.57;;;5.30;99.90;;;;;;5046489;28;20036;-82
2022/01/30 03:24:37;;;;;;;10.47;3.27;;;5.30;99.90;;;;;;5057502;28;20103;-82
2022/01/30 03:27:09;;;;;;;12.68;3.42;;;5.30;99.90;;;;;;5044242;28;20052;-81
2022/01/30 03:29:37;;;;;;;13.20;3.90;;;5.30;99.90;;;;;;5008344;28;20057;-81
2022/01/30 03:32:03;;;;;;;16.98;4.32;;;5.30;99.90;;;;;;5040105;28;20122;-83
2022/01/30 03:34:29;;;;;;;9.70;3.95;;;5.20;99.90;;;;;;5058519;28;20048;-81
2022/01/30 03:36:55;;;;;;;11.57;3.87;;;5.20;99.90;;;;;;5041769;28;20047;-84
2022/01/30 03:39:20;;;;;;;14.73;5.20;;;5.20;99.90;;;;;;5029470;28;20049;-83
2022/01/30 03:41:46;;;;;;;17.30;4.57;;;5.30;99.90;;;;;;5047968;28;20068;-82
2022/01/30 03:44:12;;;;;;;7.47;3.53;;;5.30;99.90;;;;;;5034813;28;20125;-81
2022/01/30 03:46:37;;;;;;;19.77;4.83;;;5.30;99.90;;;;;;5051193;28;20049;-81
2022/01/30 03:49:03;;;;;;;16.77;4.33;;;5.40;99.90;;;;;;5046678;28;20048;-82
2022/01/30 03:51:29;;;;;;;10.53;3.73;;;5.60;99.90;;;;;;5031043;28;20053;-81
2022/01/30 03:53:55;;;;;;;6.63;3.50;;;5.40;99.90;;;;;;5048118;28;20072;-82
2022/01/30 03:56:20;;;;;;;15.97;4.97;;;5.50;99.90;;;;;;5043427;28;20053;-81
2022/01/30 03:58:46;;;;;;;9.30;3.97;;;5.50;99.90;;;;;;5044581;28;20059;-81
2022/01/30 04:01:12;;;;;;;17.17;4.83;;;5.50;99.90;;;;;;5019173;28;20542;-82
2022/01/30 04:03:38;;;;;;;13.40;3.87;;;5.50;99.90;;;;;;5036904;28;20063;-81
2022/01/30 04:06:05;;;;;;;13.40;5.07;;;5.90;99.90;;;;;;5015501;28;20073;-82
2022/01/30 04:08:31;;;;;;;18.25;4.72;;;5.50;99.90;;;;;;5041065;28;20050;-81
2022/01/30 04:10:57;;;;;;;21.65;6.30;;;5.60;99.90;;;;;;5056270;28;20045;-81
2022/01/30 04:13:23;;;;;;;12.67;4.13;;;5.60;99.90;;;;;;5052787;28;20044;-81
2022/01/30 04:15:49;;;;;;;12.63;4.63;;;5.60;99.90;;;;;;5032567;28;20492;-81
2022/01/30 04:18:15;;;;;;;19.80;4.70;;;5.60;99.90;;;;;;5037458;28;20051;-82
2022/01/30 04:20:41;;;;;;;14.07;5.10;;;5.60;99.90;;;;;;5049974;28;20073;-82
2022/01/30 04:23:06;;;;;;;10.50;3.77;;;5.70;99.90;;;;;;5034770;28;20053;-81
2022/01/30 04:25:32;;;;;;;9.17;4.20;;;6.20;99.90;;;;;;5037046;28;20298;-82
2022/01/30 04:27:58;;;;;;;12.60;5.77;;;5.70;99.90;;;;;;5046172;28;20507;-81
2022/01/30 04:30:24;;;;;;;14.07;5.37;;;5.70;99.90;;;;;;5054743;28;20053;-83
2022/01/30 04:32:50;;;;;;;15.90;3.83;;;5.60;99.90;;;;;;5086395;28;20045;-81
2022/01/30 04:35:23;;;;;;;23.87;5.83;;;5.60;99.90;;;;;;5032064;28;20499;-81
2022/01/30 04:38:17;;;;;;;23.60;5.35;;;5.60;99.90;;;;;;5033609;28;20407;-81
2022/01/30 04:52:18;;;;;;;17.00;5.63;;;5.40;99.90;;;;;;5053849;28;20522;-81
2022/01/30 05:00:58;;;;;;;13.88;4.50;;;5.30;99.90;;;;;;5059947;28;20044;-82
2022/01/30 05:05:56;;;;;;;14.25;4.32;;;5.30;99.90;;;;;;5080810;28;20080;-82
2022/01/30 05:08:23;;;;;;;24.52;5.50;;;5.30;99.90;;;;;;5048713;28;20547;-82
2022/01/30 05:10:49;;;;;;;15.45;4.43;;;5.30;99.90;;;;;;5019962;28;20054;-82
2022/01/30 05:13:19;;;;;;;13.70;5.07;;;5.30;99.90;;;;;;5070760;28;20049;-82
2022/01/30 05:15:45;;;;;;;14.57;4.93;;;5.20;99.90;;;;;;5058458;28;20040;-81
2022/01/30 05:18:15;;;;;;;15.33;5.07;;;5.20;99.90;;;;;;5016518;28;20116;-82
2022/01/30 05:20:41;;;;;;;18.40;6.07;;;5.20;99.90;;;;;;5051774;28;20291;-81
2022/01/30 05:23:07;;;;;;;18.80;5.43;;;5.10;99.90;;;;;;5051930;28;20553;-81
2022/01/30 05:25:33;;;;;;;19.67;5.50;;;5.10;99.90;;;;;;5054044;28;20132;-81
2022/01/30 05:27:59;;;;;;;17.45;6.03;;;5.10;99.90;;;;;;5051690;28;20518;-81
2022/01/30 05:30:25;;;;;;;15.27;6.60;;;5.00;99.90;;;;;;5043222;28;20043;-81
2022/01/30 05:32:51;;;;;;;21.13;5.57;;;5.00;99.90;;;;;;5046005;28;20292;-81
2022/01/30 05:35:17;;;;;;;20.27;5.03;;;5.00;99.90;;;;;;5063009;28;20048;-82
2022/01/30 05:37:45;;;;;;;16.50;5.27;;;5.00;99.90;;;;;;5035592;28;20490;-81
2022/01/30 05:40:11;;;;;;;13.57;4.07;;;5.00;99.90;;;;;;5072043;28;20052;-85
2022/01/30 05:42:38;;;;;;;11.05;4.97;;;5.00;99.90;;;;;;5055546;28;20510;-82
2022/01/30 05:45:15;;;;;;;;;;;5.00;99.90;;;;;;5020536;28;20044;-81
2022/01/30 05:47:47;;;;;;;15.77;3.50;;;4.90;99.90;;;;;;5045732;28;19929;-82
2022/01/30 05:50:13;;;;;;;14.25;4.32;;;4.90;99.90;;;;;;5058974;28;20137;-84
2022/01/30 05:52:39;;;;;;;28.15;4.53;;;5.20;99.90;;;;;;5062635;28;20514;-82
2022/01/30 05:55:05;;;;;;;25.03;6.73;;;4.90;99.90;;;;;;5048182;28;20049;-81
2022/01/30 05:57:31;;;;;;;11.60;4.90;;;4.80;99.90;;;;;;5048056;28;20055;-81
2022/01/30 05:59:57;;;;;;;8.48;4.70;;;4.80;99.90;;;;;;5024122;28;20646;-82
2022/01/30 06:02:22;;;;;;;26.63;5.47;;;4.80;99.90;;;;;;5049888;28;20040;-82
2022/01/30 06:04:48;;;;;;;26.57;6.70;;;4.90;99.90;;;;;;5047655;28;20045;-81
2022/01/30 06:07:14;;;;;;;29.17;7.77;;;4.90;99.90;;;;;;5009272;28;20056;-85
2022/01/30 06:09:39;;;;;;;24.88;6.00;;;5.00;99.90;;;;;;5047687;28;20049;-81
2022/01/30 06:12:06;;;;;;;27.60;5.97;;;5.00;99.90;;;;;;5040775;28;20076;-82
2022/01/30 06:14:32;;;;;;;14.57;5.03;;;5.00;99.90;;;;;;5045165;28;20369;-82
2022/01/30 06:16:58;;;;;;;18.03;4.43;;;5.10;99.90;;;;;;5069962;28;20051;-81
2022/01/30 06:19:25;;;;;;;21.25;5.90;;;5.10;99.90;;;;;;5018268;28;20491;-81
2022/01/30 06:21:51;;;;;;;30.13;5.90;;;5.20;99.90;;;;;;5030377;28;20132;-81
2022/01/30 06:24:17;;;;;;;34.50;5.87;;;5.20;99.90;;;;;;5047073;28;20067;-85
2022/01/30 06:26:42;;;;;;;17.93;6.33;;;5.20;99.90;;;;;;5055235;28;20295;-81
2022/01/30 06:29:08;;;;;;;18.83;6.07;;;5.20;99.90;;;;;;5039685;28;20165;-81
2022/01/30 06:31:34;;;;;;;10.53;5.40;;;5.30;99.90;;;;;;5062410;28;20045;-81
2022/01/30 06:34:00;;;;;;;18.23;6.60;;;5.30;99.90;;;;;;5039926;28;20067;-81
2022/01/30 06:36:25;;;;;;;18.03;6.00;;;6.30;99.90;;;;;;5050556;28;20071;-81
2022/01/30 06:38:52;;;;;;;19.53;5.07;;;5.30;99.90;;;;;;5044029;28;20200;-81
2022/01/30 06:41:18;;;;;;;26.45;5.38;;;5.30;99.90;;;;;;5059211;28;20048;-84
2022/01/30 06:43:44;;;;;;;13.80;5.60;;;5.20;99.90;;;;;;5062549;28;20486;-81
2022/01/30 06:46:11;;;;;;;25.13;6.40;;;5.80;99.90;;;;;;5072865;28;20032;-81
2022/01/30 06:48:37;;;;;;;;;;;5.80;99.90;;;;;;5064251;28;20372;-81
2022/01/30 06:51:05;;;;;;;14.68;5.88;;;5.10;99.90;;;;;;5066111;28;19921;-81
2022/01/30 06:53:31;;;;;;;18.83;6.13;;;6.00;99.90;;;;;;5029471;28;20093;-81
2022/01/30 06:55:57;;;;;;;18.58;5.97;;;6.40;99.90;;;;;;5065445;28;20061;-81
2022/01/30 06:58:23;;;;;;;19.33;5.87;;;5.10;99.90;;;;;;5042518;28;20142;-84
2022/01/30 07:00:48;;;;;;;14.80;5.13;;;5.10;99.90;;;;;;5038330;28;20113;-81
2022/01/30 07:03:14;;;;;;;15.27;5.83;;;5.10;99.90;;;;;;5048422;28;20513;-81
2022/01/30 07:05:40;;;;;;;26.83;6.67;;;5.20;99.90;;;;;;5064620;28;20038;-81
2022/01/30 07:08:06;;;;;;;11.25;5.55;;;5.10;99.90;;;;;;5027834;28;20049;-81
2022/01/30 07:10:32;;;;;;;17.50;6.60;;;6.40;99.90;;;;;;5059054;28;20407;-81
2022/01/30 07:13:00;;;;;;;22.03;7.20;;;5.10;99.90;;;;;;5050008;28;20053;-81
2022/01/30 07:15:25;;;;;;;23.13;6.05;;;5.20;99.90;;;;;;5026451;28;20069;-85
2022/01/30 07:17:51;;;;;;;22.53;5.93;;;5.20;99.90;;;;;;5042587;28;20479;-81
2022/01/30 07:20:17;;;;;;;30.60;8.13;;;5.30;99.90;;;;;;5053199;28;20131;-81
2022/01/30 07:22:42;;;;;;;15.73;4.57;;;5.30;99.90;;;;;;5041119;28;20044;-81
2022/01/30 07:25:09;;;;;;;26.63;6.23;;;5.30;99.90;;;;;;5055951;28;20132;-81
2022/01/30 07:27:36;;;;;;;23.40;5.13;;;5.40;99.90;;;;;;5017603;28;20041;-81
2022/01/30 07:30:03;;;;;;;21.52;6.70;;;5.40;99.90;;;;;;5048756;28;20295;-81
2022/01/30 07:32:29;;;;;;;18.55;5.55;;;5.40;99.90;;;;;;5061377;28;20106;-80
2022/01/30 07:34:54;;;;;;;23.10;6.87;;;5.30;99.90;;;;;;5060927;28;20049;-80
2022/01/30 07:37:20;;;;;;;20.33;5.73;;;5.60;99.90;;;;;;5029404;28;20127;-81
2022/01/30 07:39:46;;;;;;;20.80;6.85;;;5.30;99.90;;;;;;5032339;28;20041;-80
2022/01/30 07:42:12;;;;;;;25.57;6.27;;;5.30;99.90;;;;;;5033317;28;20484;-80
2022/01/30 07:44:38;;;;;;;15.37;5.60;;;5.30;99.90;;;;;;5032162;28;20053;-80
2022/01/30 07:47:05;;;;;;;16.35;5.97;;;5.30;99.90;;;;;;5040773;28;20488;-80
2022/01/30 07:49:30;;;;;;;27.13;6.60;;;5.30;99.90;;;;;;5052154;28;20044;-81
2022/01/30 07:51:56;;;;;;;28.07;7.20;;;5.30;99.90;;;;;;5037106;28;20158;-80
2022/01/30 07:54:22;;;;;;;24.80;6.17;;;5.30;99.90;;;;;;5045136;28;20049;-80
2022/01/30 07:56:48;;;;;;;20.70;5.93;;;6.50;99.90;;;;;;5026820;28;20401;-80
2022/01/30 07:59:14;;;;;;;17.73;6.23;;;5.30;99.90;;;;;;5055474;28;20052;-80
2022/01/30 08:01:40;;;;;;;18.13;6.47;;;5.30;99.90;;;;;;5032355;28;20037;-79
2022/01/30 08:04:11;;;;;;;14.43;6.13;;;6.40;99.90;;;;;;5055878;28;20044;-80
2022/01/30 08:06:37;;;;;;;15.95;4.95;;;5.30;99.90;;;;;;5032605;28;20441;-82
2022/01/30 08:09:03;;;;;;;18.17;4.77;;;5.30;99.90;;;;;;5024378;28;20130;-80
2022/01/30 08:11:29;;;;;;;22.33;5.57;;;5.30;99.90;;;;;;5038390;28;20107;-80
2022/01/30 08:13:55;;;;;;;13.10;5.10;;;5.40;99.90;;;;;;5045784;28;20041;-81
2022/01/30 08:16:23;;;;;;;16.00;4.78;;;5.30;99.90;;;;;;5035759;28;20288;-82
2022/01/30 08:18:51;;;;;;;17.77;5.57;;;5.30;99.90;;;;;;5042752;28;20127;-86
2022/01/30 08:21:26;;;;;;;;;;;;;;;;;;;;;
2022/01/30 08:23:55;;;;;;;11.93;4.20;;;5.30;99.90;;;;;;5052204;28;20451;-82
2022/01/30 08:26:21;;;;;;;14.10;5.37;;;5.40;99.90;;;;;;5052578;28;20124;-81
2022/01/30 08:28:47;;;;;;;16.70;4.53;;;6.20;99.90;;;;;;5053180;28;20076;-81
2022/01/30 08:31:13;;;;;;;20.83;5.37;;;5.40;99.90;;;;;;5048817;28;20052;-80
2022/01/30 08:33:39;;;;;;;14.13;4.87;;;5.50;99.90;;;;;;5044334;28;20045;-81
2022/01/30 08:36:05;;;;;;;23.13;5.03;;;5.50;99.90;;;;;;5035558;28;20052;-80
2022/01/30 08:38:30;;;;;;;16.77;5.30;;;5.50;99.90;;;;;;5044913;28;20044;-80
2022/01/30 08:40:56;;;;;;;12.23;5.03;;;5.50;99.90;;;;;;5055115;28;20157;-79
2022/01/30 08:43:22;;;;;;;17.37;5.53;;;5.50;99.90;;;;;;5051442;28;20099;-82
2022/01/30 08:45:52;;;;;;;17.13;4.60;;;5.70;99.90;;;;;;5018198;28;20559;-82
2022/01/30 08:48:19;;;;;;;12.80;4.97;;;5.50;99.90;;;;;;5044413;28;20080;-79
2022/01/30 08:50:45;;;;;;;19.27;4.88;;;5.60;99.90;;;;;;5031396;28;20081;-80
2022/01/30 08:53:11;;;;;;;12.07;4.10;;;5.60;99.90;;;;;;5027686;28;20050;-82
2022/01/30 08:55:37;;;;;;;19.47;5.10;;;5.60;99.90;;;;;;5032444;28;20056;-83
2022/01/30 08:58:09;;;;;;;14.13;5.53;;;6.30;99.90;;;;;;5058856;28;20057;-83
2022/01/30 09:00:40;;;;;;;20.33;5.75;;;5.80;99.90;;;;;;5016000;28;20037;-82
2022/01/30 09:03:07;;;;;;;16.33;5.03;;;5.90;99.90;;;;;;5035051;28;20045;-82
2022/01/30 09:05:33;;;;;;;23.30;5.38;;;6.40;99.90;;;;;;5037772;28;20161;-82
2022/01/30 09:08:03;;;;;;;9.48;4.32;;;6.20;99.90;;;;;;5034186;28;20037;-81
2022/01/30 09:10:33;;;;;;;17.55;6.13;;;6.30;99.90;;;;;;5053305;28;20056;-81
2022/01/30 09:12:59;;;;;;;14.60;5.13;;;6.30;99.90;;;;;;5047018;28;20045;-82
2022/01/30 09:15:26;;;;;;;12.23;4.07;;;6.30;99.90;;;;;;5049201;28;20097;-81
2022/01/30 09:17:52;;;;;;;18.35;5.95;;;6.30;99.90;;;;;;5054085;28;20049;-82
2022/01/30 09:20:18;;;;;;;21.75;6.15;;;6.20;99.90;;;;;;5064677;28;20132;-80
2022/01/30 09:22:45;;;;;;;14.10;4.90;;;6.10;99.90;;;;;;5048252;28;20108;-82
2022/01/30 09:25:11;;;;;;;17.42;5.38;;;6.00;99.90;;;;;;5016167;28;20391;-80
2022/01/30 09:27:37;;;;;;;20.02;3.85;;;6.00;99.90;;;;;;5048263;28;20056;-80
2022/01/30 09:30:06;;;;;;;13.57;6.13;;;6.00;99.90;;;;;;5047743;28;20049;-81
2022/01/30 09:32:32;;;;;;;16.85;5.68;;;6.10;99.90;;;;;;5032115;28;20505;-82
2022/01/30 09:34:58;;;;;;;13.82;6.00;;;6.40;99.90;;;;;;5033728;28;20076;-81
2022/01/30 09:37:24;;;;;;;16.00;4.77;;;6.60;99.90;;;;;;5069684;28;20120;-81
2022/01/30 09:39:50;;;;;;;22.80;5.67;;;6.70;99.90;;;;;;5040614;28;20045;-81
2022/01/30 09:42:19;;;;;;;30.30;5.50;;;6.70;99.90;;;;;;5033871;28;20085;-80
2022/01/30 09:44:44;;;;;;;14.35;4.93;;;6.60;99.90;;;;;;5070958;28;20040;-81
2022/01/30 09:47:12;;;;;;;16.00;5.53;;;6.70;99.90;;;;;;5071046;28;20124;-80
2022/01/30 09:49:40;;;;;;;14.98;5.97;;;6.60;99.90;;;;;;5029053;28;20128;-80
2022/01/30 09:52:08;;;;;;;15.38;5.63;;;6.70;99.90;;;;;;5050813;28;20041;-80
2022/01/30 09:54:35;;;;;;;19.98;5.50;;;6.90;99.90;;;;;;5051787;28;20095;-79
2022/01/30 09:57:00;;;;;;;15.60;5.25;;;7.00;99.90;;;;;;5041904;28;20076;-81
2022/01/30 09:59:29;;;;;;;15.07;5.05;;;6.90;99.90;;;;;;5045097;28;20451;-81
2022/01/30 10:01:55;;;;;;;16.90;6.70;;;6.90;99.90;;;;;;5040940;28;20092;-82
2022/01/30 10:04:20;;;;;;;15.70;5.40;;;6.80;99.90;;;;;;5028119;28;20052;-83
2022/01/30 10:07:03;;;;;;;18.57;5.80;;;6.90;99.90;;;;;;5052069;28;20094;-84
2022/01/30 10:09:33;;;;;;;16.17;5.57;;;7.10;99.90;;;;;;5046766;28;20049;-81
2022/01/30 10:12:19;;;;;;;16.10;4.90;;;7.30;99.90;;;;;;5034523;28;20400;-79
2022/01/30 10:14:53;;;;;;;18.27;5.68;;;7.50;99.90;;;;;;5028958;28;20045;-80
2022/01/30 10:17:26;;;;;;;18.60;5.18;;;7.70;99.90;;;;;;5038517;28;20048;-81
2022/01/30 10:20:05;;;;;;;17.65;3.90;;;7.90;99.90;;;;;;5034880;28;20045;-82
2022/01/30 10:22:31;;;;;;;16.63;5.57;;;8.10;99.90;;;;;;5040818;28;20048;-80
2022/01/30 10:24:57;;;;;;;16.13;5.85;;;8.20;99.90;;;;;;5037733;28;20076;-81
2022/01/30 10:27:28;;;;;;;17.85;4.00;;;8.30;99.90;;;;;;5053728;28;20061;-82
2022/01/30 10:30:05;;;;;;;15.05;4.65;;;8.50;99.90;;;;;;5034744;28;20037;-82
2022/01/30 10:32:32;;;;;;;9.55;4.07;;;8.70;99.90;;;;;;5020593;28;20041;-82
2022/01/30 10:35:00;;;;;;;11.88;3.47;;;9.00;99.90;;;;;;5034004;28;20162;-81
2022/01/30 10:37:26;;;;;;;13.63;5.03;;;9.10;99.90;;;;;;5039102;28;20045;-82
2022/01/30 10:40:34;;;;;;;17.35;3.92;;;9.10;99.90;;;;;;5033726;28;20048;-82
2022/01/30 10:43:00;;;;;;;15.25;4.82;;;9.30;97.20;;;;;;5017322;28;20139;-82
2022/01/30 10:45:29;;;;;;;15.80;5.07;;;9.30;99.90;;;;;;5037458;28;20120;-81
2022/01/30 10:48:17;;;;;;;13.95;4.85;;;9.10;99.90;;;;;;5023198;28;20049;-84
2022/01/30 10:50:47;;;;;;;10.65;3.88;;;8.90;94.30;;;;;;5034397;28;20111;-81
2022/01/30 10:53:26;;;;;;;12.15;3.95;;;8.40;99.90;;;;;;5057890;28;20055;-81
2022/01/30 10:55:52;;;;;;;13.55;5.13;;;8.20;99.90;;;;;;5047940;28;20049;-86
2022/01/30 10:58:23;;;;;;;14.75;5.20;;;8.10;99.90;;;;;;5040509;28;20061;-81
2022/01/30 11:00:53;;;;;;;14.27;5.10;;;7.90;99.90;;;;;;5067372;28;20391;-81
2022/01/30 11:03:44;;;;;;;18.15;5.60;;;8.20;99.90;;;;;;5067443;28;20049;-81
2022/01/30 11:06:13;;;;;;;16.48;5.60;;;7.80;99.90;;;;;;5051003;28;20059;-81
2022/01/30 11:08:42;;;;;;;12.60;4.88;;;7.90;99.90;;;;;;5042199;28;20029;-82
2022/01/30 11:11:26;;;;;;;12.35;5.28;;;8.00;99.90;;;;;;5038681;28;20056;-82
2022/01/30 11:19:12;;;;;;;16.05;5.60;;;8.70;99.90;;;;;;5065529;28;20042;-81
2022/01/30 11:21:40;;;;;;;13.48;4.10;;;8.80;99.90;;;;;;5054882;28;20053;-81
2022/01/30 11:24:07;;;;;;;11.48;5.07;;;9.10;99.90;;;;;;5016067;28;20045;-80
2022/01/30 11:26:33;;;;;;;8.32;4.43;;;9.30;99.90;;;;;;5037261;28;20518;-80
2022/01/30 11:29:00;;;;;;;9.37;3.63;;;9.40;99.90;;;;;;5062484;28;20045;-81
2022/01/30 11:31:26;;;;;;;8.98;3.83;;;9.60;99.90;;;;;;5040198;28;20386;-82
2022/01/30 11:33:53;;;;;;;12.43;3.37;;;9.70;99.90;;;;;;5054100;28;20556;-83
2022/01/30 11:36:23;;;;;;;13.75;4.28;;;9.80;99.90;;;;;;5062436;28;20327;-84
2022/01/30 11:38:49;;;;;;;11.85;4.35;;;9.60;99.30;;;;;;5046187;28;20103;-81
2022/01/30 11:41:17;;;;;;;14.82;4.38;;;9.50;99.90;;;;;;5058792;28;20068;-81
2022/01/30 11:44:17;;;;;;;16.75;3.92;;;9.50;98.30;;;;;;5041492;28;20102;-82
2022/01/30 11:47:04;;;;;;;15.35;4.15;;;9.40;88.40;;;;;;5068561;28;20163;-82
2022/01/30 11:50:00;;;;;;;14.85;4.93;;;9.30;99.90;;;;;;5033123;28;20064;-81
2022/01/30 11:52:46;;;;;;;12.15;3.95;;;9.00;90.80;;;;;;5049186;28;20055;-87
2022/01/30 11:55:43;;;;;;;15.23;4.25;;;8.80;90.10;;;;;;5052977;28;20485;-83
2022/01/30 11:58:31;;;;;;;11.52;4.15;;;8.60;93.40;;;;;;5057806;28;20103;-82
2022/01/30 12:01:10;;;;;;;14.80;4.05;;;8.60;90.70;;;;;;5068972;28;20041;-83
2022/01/30 12:03:36;;;;;;;14.02;3.80;;;8.70;94.00;;;;;;5052615;28;20041;-83
2022/01/30 12:06:20;;;;;;;12.55;4.28;;;8.90;99.90;;;;;;5059273;28;20037;-83
2022/01/30 12:08:53;;;;;;;9.40;3.95;;;9.10;92.70;;;;;;5032978;28;20064;-87
2022/01/30 12:11:37;;;;;;;8.20;3.42;;;9.30;99.90;;;;;;5051263;28;20447;-83
2022/01/30 12:14:10;;;;;;;13.45;4.30;;;9.40;90.60;;;;;;5038750;28;20045;-83
2022/01/30 12:16:49;;;;;;;9.85;4.55;;;9.50;99.90;;;;;;5068754;28;20396;-82
2022/01/30 12:19:41;;;;;;;7.85;3.72;;;9.60;93.20;;;;;;5038239;28;20052;-82
2022/01/30 12:22:16;;;;;;;9.48;4.13;;;9.60;84.90;;;;;;5050948;28;20056;-86
2022/01/30 12:24:45;;;;;;;10.27;4.30;;;9.40;99.70;;;;;;5061226;28;20041;-82
2022/01/30 12:27:11;;;;;;;12.93;4.65;;;9.20;99.90;;;;;;5034312;28;20040;-83
2022/01/30 12:29:38;;;;;;;11.35;3.83;;;9.10;99.90;;;;;;5033241;28;20049;-82
2022/01/30 12:32:22;;;;;;;14.32;3.85;;;8.90;99.90;;;;;;5050833;28;20087;-83
2022/01/30 12:35:00;;;;;;;11.25;4.60;;;8.90;95.70;;;;;;5035458;28;20045;-82
2022/01/30 12:37:27;;;;;;;7.68;3.75;;;8.90;97.70;;;;;;5035007;28;20049;-82
2022/01/30 12:39:53;;;;;;;9.15;3.47;;;9.20;99.90;;;;;;5068710;28;20051;-82
2022/01/30 12:42:21;;;;;;;7.07;4.13;;;9.30;99.90;;;;;;5052549;28;20045;-83
2022/01/30 12:44:48;;;;;;;12.55;3.58;;;9.40;99.90;;;;;;5052922;28;20103;-82
2022/01/30 12:47:15;;;;;;;15.45;4.75;;;9.30;99.90;;;;;;5034830;28;20562;-82
2022/01/30 12:49:50;;;;;;;;;;;9.10;99.90;;;;;;5052375;28;20052;-82
2022/01/30 12:52:36;;;;;;;11.05;3.47;;;8.90;87.90;;;;;;5034668;28;19921;-82
2022/01/30 12:55:13;;;;;;;11.77;4.55;;;8.70;99.90;;;;;;5034723;28;20557;-82
2022/01/30 12:57:43;;;;;;;15.43;4.70;;;8.50;99.90;;;;;;5068165;28;20061;-82
2022/01/30 13:00:13;;;;;;;7.90;4.53;;;8.40;99.90;;;;;;5034888;28;20049;-83
2022/01/30 13:02:38;;;;;;;7.45;4.03;;;8.50;99.90;;;;;;5052658;28;20053;-82
2022/01/30 13:05:10;;;;;;;13.90;4.60;;;8.70;99.90;;;;;;5052817;28;20044;-82
2022/01/30 13:07:37;;;;;;;11.57;4.28;;;8.70;99.90;;;;;;5035286;28;20121;-82
2022/01/30 13:10:12;;;;;;;12.18;4.25;;;8.40;99.90;;;;;;5068394;28;20057;-82
2022/01/30 13:12:39;;;;;;;16.55;4.65;;;8.40;99.90;;;;;;5051307;28;20495;-82
2022/01/30 13:15:07;;;;;;;12.60;4.47;;;8.30;99.90;;;;;;5034717;28;20041;-81
2022/01/30 13:17:33;;;;;;;16.67;4.35;;;8.00;99.90;;;;;;5034583;28;20102;-82
2022/01/30 13:19:59;;;;;;;17.40;5.70;;;7.90;99.90;;;;;;5052200;28;20496;-82
2022/01/30 13:22:34;;;;;;;12.98;4.57;;;8.00;99.90;;;;;;5034588;28;20049;-82
2022/01/30 13:25:03;;;;;;;12.57;4.25;;;7.60;99.90;;;;;;5035098;28;20479;-81
2022/01/30 13:27:29;;;;;;;8.90;4.47;;;7.80;99.90;;;;;;5034321;28;20055;-82
2022/01/30 13:29:56;;;;;;;11.40;4.45;;;8.10;99.90;;;;;;5034958;28;20140;-82
2022/01/30 13:32:25;;;;;;;18.48;3.88;;;8.40;99.90;;;;;;5034516;28;20045;-82
2022/01/30 13:34:53;;;;;;;12.40;3.80;;;8.70;99.90;;;;;;5051189;28;20119;-82
2022/01/30 13:37:20;;;;;;;9.52;3.47;;;9.00;99.90;;;;;;5017822;28;20103;-82
2022/01/30 13:48:20;;;;;;;10.00;3.05;;;9.00;88.10;;;;;;5055255;28;20056;-82
2022/01/30 13:50:49;;;;;;;8.13;2.95;;;8.50;90.10;;;;;;5038653;28;20044;-82
2022/01/30 13:53:22;;;;;;;7.72;2.97;;;8.30;93.40;;;;;;5054925;28;20045;-84
2022/01/30 13:56:15;;;;;;;9.73;2.78;;;8.10;93.00;;;;;;5054783;28;20053;-82
2022/01/30 13:58:41;;;;;;;8.50;3.05;;;8.10;90.60;;;;;;5055417;28;20146;-82
2022/01/30 14:01:10;;;;;;;8.20;3.23;;;8.20;93.70;;;;;;5038715;28;20487;-81
2022/01/30 14:03:37;;;;;;;7.28;3.15;;;8.40;93.90;;;;;;5038139;28;20060;-82
2022/01/30 14:06:14;;;;;;;9.43;3.25;;;8.70;95.60;;;;;;5038478;28;20048;-81